Terminal Aerodrome Forecast
Issued by NWS

Home | Current Version | Previous Version | Text Only | Print | Product List | Glossary On
Versions: 1 2 3 4 5 6 7 8 9 10 11 12 13 14 15 16 17 18
000
FTUS43 KGLD 210121 AAA
TAFMCK
TAF AMD
KMCK 210121Z 2101/2124 18014KT P6SM FEW110
     FM210600 15007KT P6SM FEW070 WS020/19040KT
     FM210900 16007KT P6SM SCT150 WS020/22035KT
     FM211200 17005KT P6SM SCT150
     FM211900 30010KT P6SM FEW150
     FM212000 36010KT P6SM FEW150
     FM212100 03011KT P6SM FEW150=

USA.gov is the U.S. government's official web portal to all federal, state and local government web resources and services.